Time;durP1;ratioP1;P1;durP2;ratioP2;P2;SDS_P1;SDS_P2;PMS_P1;PMS_P2;Temp;Humidity;BMP_temperature;BMP_pressure;BME280_temperature;BME280_humidity;BME280_pressure;Samples;Min_cycle;Max_cycle;Signal;HPM_P1;HPM_P2
2022/05/10 13:10:07;;;;;;;11.00;9.90;;;29.40;99.90;;;;;;4989114;28;20432;-66
2022/05/10 13:12:44;;;;;;;12.32;10.95;;;29.40;99.90;;;;;;4992447;28;20465;-63
2022/05/10 13:15:15;;;;;;;12.23;10.97;;;28.50;99.90;;;;;;5009560;28;20392;-66
2022/05/10 13:17:45;;;;;;;11.13;10.13;;;28.60;99.90;;;;;;5012570;28;20381;-66
2022/05/10 13:20:13;;;;;;;11.90;10.70;;;28.60;99.90;;;;;;5011490;28;20463;-64
2022/05/10 13:22:49;;;;;;;13.25;11.95;;;28.90;99.90;;;;;;5012151;28;20404;-64
2022/05/10 13:25:15;;;;;;;13.30;12.00;;;29.40;99.90;;;;;;5011867;28;20397;-65
2022/05/10 13:27:42;;;;;;;12.10;11.00;;;29.40;99.90;;;;;;5011891;28;20413;-65
2022/05/10 13:30:12;;;;;;;13.23;11.93;;;29.20;99.90;;;;;;5011217;28;20479;-64
2022/05/10 13:32:37;;;;;;;12.20;10.57;;;29.00;99.90;;;;;;5012004;28;20388;-67
2022/05/10 13:35:23;;;;;;;13.40;12.20;;;28.40;99.90;;;;;;5010982;28;20389;-67
2022/05/10 13:38:14;;;;;;;12.83;11.60;;;28.30;99.90;;;;;;5011557;28;20898;-66
2022/05/10 13:40:39;;;;;;;12.32;11.13;;;28.30;99.90;;;;;;5005434;28;20417;-67
2022/05/10 13:43:21;;;;;;;11.95;10.85;;;28.50;99.90;;;;;;5011057;28;20385;-66
2022/05/10 13:46:02;;;;;;;12.45;10.82;;;29.00;99.90;;;;;;5011555;28;20392;-67
2022/05/10 13:48:45;;;;;;;12.15;10.85;;;29.20;99.90;;;;;;5011871;28;20475;-66
2022/05/10 13:51:20;;;;;;;12.68;11.48;;;29.30;99.90;;;;;;5010546;28;20381;-64
2022/05/10 13:53:56;;;;;;;14.60;11.70;;;29.40;99.90;;;;;;5010153;28;20389;-63
2022/05/10 13:56:27;;;;;;;13.55;12.15;;;28.90;99.90;;;;;;5011166;28;20393;-61
2022/05/10 13:58:53;;;;;;;13.07;11.88;;;29.10;99.90;;;;;;5010871;28;20373;-60
2022/05/10 14:01:40;;;;;;;13.57;12.27;;;29.00;99.90;;;;;;5010942;28;20388;-63
2022/05/10 14:04:08;;;;;;;12.87;11.67;;;28.40;99.90;;;;;;5010940;28;20373;-62
2022/05/10 14:06:36;;;;;;;13.02;11.68;;;28.20;99.90;;;;;;5011015;28;20468;-66
2022/05/10 14:09:07;;;;;;;13.30;12.00;;;28.30;99.90;;;;;;4998762;28;20501;-67
2022/05/10 14:11:40;;;;;;;12.27;11.07;;;28.30;99.90;;;;;;4991431;28;20413;-66
2022/05/10 14:14:12;;;;;;;11.90;10.70;;;28.20;99.90;;;;;;4981289;28;20412;-67
2022/05/10 14:16:39;;;;;;;11.60;10.40;;;28.30;99.90;;;;;;4971855;28;20392;-64
2022/05/10 14:19:17;;;;;;;13.40;10.65;;;28.50;99.90;;;;;;4971283;28;20575;-67
2022/05/10 14:21:44;;;;;;;12.00;10.80;;;28.70;99.90;;;;;;4971595;28;20380;-66
2022/05/10 14:24:12;;;;;;;12.85;11.35;;;28.50;99.90;;;;;;4971019;28;21017;-66
2022/05/10 14:26:43;;;;;;;13.47;11.40;;;28.50;99.90;;;;;;4971864;28;20389;-65
2022/05/10 14:29:36;;;;;;;12.20;11.05;;;28.80;99.90;;;;;;4971041;28;20395;-66
2022/05/10 14:32:05;;;;;;;12.82;11.52;;;29.00;99.90;;;;;;4970711;28;20384;-61
2022/05/10 14:35:00;;;;;;;12.85;11.55;;;28.70;99.90;;;;;;4971466;28;20396;-64
2022/05/10 14:37:49;;;;;;;13.13;11.77;;;28.40;99.90;;;;;;4971104;28;20789;-66
2022/05/10 14:40:26;;;;;;;14.77;11.38;;;28.40;99.90;;;;;;4953318;28;20412;-67
2022/05/10 14:42:59;;;;;;;12.52;11.23;;;28.70;99.90;;;;;;4971117;28;20400;-60
2022/05/10 14:45:25;;;;;;;13.40;11.90;;;28.90;99.90;;;;;;4971478;28;20404;-67
2022/05/10 14:47:51;;;;;;;12.27;11.07;;;29.10;99.90;;;;;;4970631;28;20419;-60
2022/05/10 14:50:37;;;;;;;13.00;11.60;;;29.20;99.90;;;;;;4954157;28;20388;-67
2022/05/10 14:53:12;;;;;;;12.75;11.55;;;29.10;99.90;;;;;;4970560;28;20400;-67
2022/05/10 14:55:40;;;;;;;12.90;11.60;;;29.10;99.90;;;;;;4971220;28;20396;-67
2022/05/10 14:58:12;;;;;;;13.20;11.90;;;29.00;99.90;;;;;;4970298;28;20391;-67
2022/05/10 15:00:41;;;;;;;13.40;12.20;;;29.00;99.90;;;;;;4970919;28;20393;-67
2022/05/10 15:03:18;;;;;;;13.95;12.00;;;28.70;99.90;;;;;;4969824;28;20392;-64
2022/05/10 15:05:44;;;;;;;12.90;11.70;;;28.30;99.90;;;;;;4970844;28;20487;-66
2022/05/10 15:08:11;;;;;;;14.07;12.68;;;28.10;99.90;;;;;;4974154;28;21260;-67
2022/05/10 15:10:37;;;;;;;13.27;11.95;;;28.00;99.90;;;;;;4990733;28;20391;-66
2022/05/10 15:13:04;;;;;;;13.88;12.57;;;27.90;99.90;;;;;;4989434;28;20731;-66
2022/05/10 15:15:34;;;;;;;12.75;11.45;;;27.80;99.90;;;;;;4990209;28;21020;-64
2022/05/10 15:20:46;;;;;;;15.63;11.95;;;27.50;99.90;;;;;;4990280;28;20391;-66
2022/05/10 15:23:12;;;;;;;13.20;11.90;;;27.90;99.90;;;;;;4989620;28;20408;-66
2022/05/10 15:25:39;;;;;;;12.10;11.00;;;28.20;99.90;;;;;;4972668;28;20738;-66
2022/05/10 15:28:06;;;;;;;12.70;11.50;;;28.40;99.90;;;;;;4989315;28;20496;-66
2022/05/10 15:30:31;;;;;;;13.50;11.63;;;28.40;99.90;;;;;;4990173;28;20478;-66
2022/05/10 15:32:57;;;;;;;13.57;12.27;;;28.40;99.90;;;;;;4989000;28;20516;-66
2022/05/10 15:35:23;;;;;;;13.23;12.00;;;28.40;99.90;;;;;;4989616;28;20497;-66
2022/05/10 15:37:49;;;;;;;12.40;11.10;;;28.10;99.90;;;;;;4972816;28;20391;-66
2022/05/10 15:40:18;;;;;;;13.90;12.50;;;28.20;99.90;;;;;;4989354;28;20398;-66
2022/05/10 15:42:44;;;;;;;13.48;12.10;;;28.20;99.90;;;;;;4989975;28;20491;-66
2022/05/10 15:45:11;;;;;;;12.77;11.47;;;28.20;99.90;;;;;;4989613;28;20426;-65
2022/05/10 15:47:41;;;;;;;12.20;10.90;;;27.90;99.90;;;;;;4989736;28;20409;-65
2022/05/10 15:50:10;;;;;;;13.50;12.20;;;27.70;99.90;;;;;;4988948;28;20450;-65
2022/05/10 15:52:36;;;;;;;13.47;12.27;;;27.70;99.90;;;;;;4989741;28;20398;-63
2022/05/10 15:55:02;;;;;;;13.53;12.23;;;27.60;99.90;;;;;;4989280;28;20386;-63
2022/05/10 15:57:27;;;;;;;13.90;12.40;;;27.30;99.90;;;;;;4989886;28;20405;-65
2022/05/10 15:59:53;;;;;;;14.32;12.82;;;27.10;99.90;;;;;;4989434;28;20792;-59
2022/05/10 16:02:20;;;;;;;14.50;13.00;;;26.70;99.90;;;;;;4989512;28;20394;-65
2022/05/10 16:04:46;;;;;;;11.50;7.50;;;26.80;99.90;;;;;;4972332;28;20461;-66
2022/05/10 16:07:15;;;;;;;11.00;9.38;;;26.70;99.90;;;;;;4988855;28;21042;-63
2022/05/10 16:09:41;;;;;;;12.50;10.10;;;26.70;99.90;;;;;;5006152;28;20696;-64
2022/05/10 16:12:08;;;;;;;11.00;9.73;;;26.70;99.90;;;;;;5008224;28;20439;-64
2022/05/10 16:14:34;;;;;;;11.37;9.97;;;26.60;99.90;;;;;;4996116;28;20883;-64
2022/05/10 16:16:59;;;;;;;11.98;10.68;;;26.60;99.90;;;;;;4991672;28;20398;-64
2022/05/10 16:19:25;;;;;;;12.55;10.75;;;26.70;99.90;;;;;;4993356;28;20775;-63
2022/05/10 16:21:51;;;;;;;15.18;10.88;;;26.50;99.90;;;;;;4993393;28;20398;-64
2022/05/10 16:24:16;;;;;;;12.48;10.15;;;26.40;99.90;;;;;;4992942;28;20386;-64
2022/05/10 16:29:46;;;;;;;15.00;10.60;;;26.20;99.90;;;;;;4961986;28;20427;-65
2022/05/10 16:32:17;;;;;;;14.30;10.10;;;26.30;99.90;;;;;;4992011;28;20398;-65
2022/05/10 16:34:44;;;;;;;12.10;9.93;;;26.40;99.90;;;;;;4993000;28;20391;-64
2022/05/10 16:37:11;;;;;;;13.32;10.50;;;26.40;99.90;;;;;;4992762;28;20374;-64
2022/05/10 16:39:37;;;;;;;12.00;10.38;;;26.20;99.90;;;;;;4992797;28;20398;-65
2022/05/10 16:42:07;;;;;;;15.10;11.10;;;26.20;99.90;;;;;;4992785;28;20740;-64
2022/05/10 16:44:33;;;;;;;12.60;11.20;;;25.90;99.90;;;;;;4993724;28;20478;-60
2022/05/10 16:46:59;;;;;;;12.52;10.52;;;26.70;99.90;;;;;;4992709;28;20485;-64
2022/05/10 16:49:25;;;;;;;14.60;11.70;;;25.80;99.90;;;;;;4992991;28;20374;-64
2022/05/10 16:51:51;;;;;;;13.95;12.55;;;25.80;99.90;;;;;;4993211;28;20477;-66
2022/05/10 16:54:18;;;;;;;12.68;10.70;;;25.80;99.90;;;;;;4992639;28;20474;-65
2022/05/10 16:56:47;;;;;;;12.55;11.05;;;25.60;99.90;;;;;;4993531;28;20868;-64
2022/05/10 16:59:13;;;;;;;13.23;10.67;;;25.60;99.90;;;;;;4992429;28;20394;-64
2022/05/10 17:01:39;;;;;;;11.70;10.50;;;25.60;99.90;;;;;;4992740;28;20533;-64
2022/05/10 17:04:06;;;;;;;13.48;11.60;;;25.60;99.90;;;;;;4991619;28;20473;-64
2022/05/10 17:06:34;;;;;;;13.52;10.88;;;25.60;99.90;;;;;;4992605;28;20448;-64
2022/05/10 17:09:00;;;;;;;12.10;10.85;;;25.60;99.90;;;;;;4991331;28;20419;-63
2022/05/10 17:11:26;;;;;;;11.97;9.97;;;25.50;99.90;;;;;;4992341;28;20393;-64
2022/05/10 17:13:52;;;;;;;11.95;10.75;;;25.50;99.90;;;;;;4974711;28;20787;-63
2022/05/10 17:16:18;;;;;;;11.87;10.60;;;25.60;99.90;;;;;;4990518;28;20394;-65
2022/05/10 17:18:43;;;;;;;11.70;10.20;;;25.50;99.90;;;;;;4992205;28;20391;-63
2022/05/10 17:21:09;;;;;;;12.82;10.70;;;25.50;99.90;;;;;;4991346;28;20398;-65
2022/05/10 17:23:35;;;;;;;13.02;10.15;;;25.50;99.90;;;;;;4992038;28;20390;-63
2022/05/10 17:26:02;;;;;;;13.80;11.00;;;25.40;99.90;;;;;;4991331;28;20387;-64
2022/05/10 17:31:13;;;;;;;11.27;9.18;;;25.30;99.90;;;;;;4991261;28;20394;-64
2022/05/10 17:33:40;;;;;;;18.58;9.63;;;25.30;99.90;;;;;;4991938;28;20445;-65
2022/05/10 17:36:07;;;;;;;18.97;10.50;;;25.30;99.90;;;;;;4991429;28;20381;-64
2022/05/10 17:38:34;;;;;;;15.38;10.02;;;25.20;99.90;;;;;;4991979;28;20508;-64
2022/05/10 17:41:01;;;;;;;17.17;9.60;;;25.20;99.90;;;;;;4991228;28;20481;-64
2022/05/10 17:43:27;;;;;;;14.75;8.40;;;25.20;99.90;;;;;;4991475;28;20745;-64
2022/05/10 17:45:54;;;;;;;12.27;9.10;;;25.10;99.90;;;;;;4991896;28;20394;-56
2022/05/10 17:48:20;;;;;;;12.80;9.93;;;25.10;99.90;;;;;;4991573;28;20429;-64
2022/05/10 17:50:46;;;;;;;11.43;9.20;;;25.00;99.90;;;;;;4991570;28;20469;-64
2022/05/10 17:53:12;;;;;;;12.32;8.95;;;24.90;99.90;;;;;;4991151;28;20483;-61
2022/05/10 17:55:43;;;;;;;11.80;9.02;;;24.80;99.90;;;;;;4991944;28;20759;-64
2022/05/10 17:58:09;;;;;;;12.88;8.10;;;24.70;99.90;;;;;;4990770;28;20481;-65
2022/05/10 18:00:35;;;;;;;12.18;8.60;;;24.70;99.90;;;;;;4991642;28;20421;-65
2022/05/10 18:03:02;;;;;;;13.07;8.02;;;24.60;99.90;;;;;;4990470;28;20898;-64
2022/05/10 18:05:28;;;;;;;11.90;7.88;;;24.60;99.90;;;;;;4991317;28;20477;-64
2022/05/10 18:07:55;;;;;;;10.35;8.32;;;24.60;99.90;;;;;;4990741;28;20433;-57
2022/05/10 18:10:21;;;;;;;12.48;8.90;;;24.60;99.90;;;;;;4991145;28;20453;-64
2022/05/10 18:12:47;;;;;;;14.55;8.65;;;25.40;99.90;;;;;;4991188;28;20510;-62
2022/05/10 18:15:13;;;;;;;11.80;8.50;;;24.40;99.90;;;;;;4990480;28;20993;-63
2022/05/10 18:17:39;;;;;;;11.15;8.00;;;24.30;99.90;;;;;;4991342;28;20422;-63
2022/05/10 18:20:06;;;;;;;13.97;8.10;;;24.30;99.90;;;;;;4990460;28;20465;-63
2022/05/10 18:22:32;;;;;;;13.27;8.68;;;24.20;99.90;;;;;;4991098;28;20382;-63
2022/05/10 18:24:57;;;;;;;20.00;8.47;;;24.20;99.90;;;;;;4990523;28;20466;-56
2022/05/10 18:27:23;;;;;;;11.70;8.20;;;24.10;99.90;;;;;;4991122;28;20402;-63
2022/05/10 18:29:49;;;;;;;14.30;8.50;;;24.00;99.90;;;;;;4990691;28;20390;-64
2022/05/10 18:32:14;;;;;;;10.80;7.63;;;23.80;99.90;;;;;;4990128;28;20465;-65
2022/05/10 18:34:41;;;;;;;12.10;8.10;;;23.70;99.90;;;;;;4990966;28;20474;-64
2022/05/10 18:37:08;;;;;;;14.00;9.15;;;23.70;99.90;;;;;;4989980;28;20478;-60
2022/05/10 18:39:34;;;;;;;11.73;7.80;;;23.60;99.90;;;;;;4989688;28;20418;-62
2022/05/10 18:41:59;;;;;;;10.82;7.78;;;23.60;99.90;;;;;;4990093;28;20472;-65
2022/05/10 18:44:27;;;;;;;14.67;8.87;;;23.50;99.90;;;;;;4990404;28;20460;-60
2022/05/10 18:46:53;;;;;;;10.98;7.90;;;23.50;99.90;;;;;;4989836;28;20402;-65
2022/05/10 18:49:18;;;;;;;12.93;7.70;;;23.40;99.90;;;;;;4989966;28;20926;-66
2022/05/10 18:51:45;;;;;;;11.75;8.30;;;23.40;99.90;;;;;;4990714;28;20395;-62
2022/05/10 18:54:11;;;;;;;13.07;8.20;;;23.40;99.90;;;;;;4989935;28;20390;-63
2022/05/10 18:56:38;;;;;;;10.95;7.70;;;23.30;99.90;;;;;;4990293;28;20401;-65
2022/05/10 18:59:04;;;;;;;11.15;8.38;;;23.20;99.90;;;;;;4989461;28;20871;-65
2022/05/10 19:01:30;;;;;;;18.92;9.35;;;23.10;99.90;;;;;;4990000;28;20386;-65
2022/05/10 19:03:56;;;;;;;15.30;9.40;;;23.00;99.90;;;;;;4984236;28;20421;-59
2022/05/10 19:06:23;;;;;;;15.77;9.27;;;23.00;99.90;;;;;;4985401;28;20406;-61
2022/05/10 19:08:48;;;;;;;13.63;9.20;;;22.90;99.90;;;;;;4973741;28;20951;-66
2022/05/10 19:11:14;;;;;;;15.38;9.30;;;22.80;99.90;;;;;;4965270;28;20412;-65
2022/05/10 19:13:42;;;;;;;14.32;8.45;;;22.60;99.90;;;;;;4970292;28;20393;-62
2022/05/10 19:16:09;;;;;;;12.60;8.60;;;22.50;99.90;;;;;;4954061;28;20386;-65
2022/05/10 19:18:35;;;;;;;16.60;8.85;;;22.40;99.90;;;;;;4977605;28;20747;-64
2022/05/10 19:21:01;;;;;;;13.48;8.00;;;22.40;99.90;;;;;;4978411;28;20939;-67
2022/05/10 19:23:26;;;;;;;15.67;7.73;;;22.30;99.90;;;;;;4984515;28;20394;-65
2022/05/10 19:25:52;;;;;;;15.07;7.30;;;22.20;99.90;;;;;;4985955;28;20386;-66
2022/05/10 19:28:18;;;;;;;13.07;7.68;;;22.00;99.90;;;;;;4963303;28;20930;-60
2022/05/10 19:30:44;;;;;;;16.50;7.78;;;21.90;99.90;;;;;;4968689;28;20878;-65
2022/05/10 19:33:10;;;;;;;13.32;7.70;;;21.70;99.90;;;;;;4969200;28;20389;-67
2022/05/10 19:35:36;;;;;;;11.98;7.55;;;21.70;99.90;;;;;;4970042;28;20384;-65
2022/05/10 19:38:02;;;;;;;11.15;7.68;;;21.70;99.90;;;;;;4974388;28;20394;-68
2022/05/10 19:40:28;;;;;;;12.90;7.73;;;21.70;99.90;;;;;;4981124;28;20714;-67
2022/05/10 19:42:55;;;;;;;15.82;7.95;;;21.60;99.90;;;;;;4979291;28;20387;-67
2022/05/10 19:45:22;;;;;;;12.30;8.13;;;21.60;99.90;;;;;;4979234;28;20453;-67
2022/05/10 19:47:48;;;;;;;11.60;7.60;;;21.70;99.90;;;;;;4977317;28;20503;-67
2022/05/10 19:50:19;;;;;;;11.20;7.40;;;21.90;99.90;;;;;;4981073;28;20817;-67
2022/05/10 19:52:45;;;;;;;10.90;7.13;;;22.20;99.90;;;;;;4984209;28;20869;-65
2022/05/10 19:55:13;;;;;;;10.60;7.50;;;21.90;99.90;;;;;;4980127;28;20403;-64
2022/05/10 19:57:40;;;;;;;11.95;7.90;;;21.90;99.90;;;;;;4973418;28;20392;-65
2022/05/10 20:00:07;;;;;;;12.63;7.90;;;21.80;99.90;;;;;;4972915;28;20404;-64
2022/05/10 20:05:24;;;;;;;12.88;8.02;;;21.50;99.90;;;;;;4973393;28;20486;-64
2022/05/10 20:07:55;;;;;;;12.15;7.75;;;21.50;99.90;;;;;;4971981;28;20447;-64
2022/05/10 20:10:24;;;;;;;11.98;7.55;;;21.60;99.90;;;;;;4994134;28;20477;-59
2022/05/10 20:12:50;;;;;;;12.88;8.02;;;21.80;99.90;;;;;;4995958;28;20398;-64
2022/05/10 20:15:20;;;;;;;11.73;7.80;;;21.80;99.90;;;;;;4978658;28;20538;-64
2022/05/10 20:17:51;;;;;;;13.52;8.07;;;21.80;99.90;;;;;;5012930;28;20455;-64
2022/05/10 20:20:18;;;;;;;13.90;7.70;;;21.80;99.90;;;;;;5008997;28;20459;-64
2022/05/10 20:22:44;;;;;;;10.70;7.87;;;21.80;99.90;;;;;;5002092;28;20908;-65
2022/05/10 20:25:11;;;;;;;11.50;7.93;;;21.90;99.90;;;;;;4996553;28;20479;-66
2022/05/10 20:27:37;;;;;;;12.95;8.68;;;21.80;99.90;;;;;;4975381;28;20441;-66
2022/05/10 20:30:04;;;;;;;13.40;8.63;;;21.60;99.90;;;;;;4992490;28;20513;-63
2022/05/10 20:32:30;;;;;;;11.80;8.25;;;21.70;99.90;;;;;;4999395;28;20872;-64
2022/05/10 20:34:56;;;;;;;11.73;7.90;;;21.80;99.90;;;;;;4994765;28;20390;-63
2022/05/10 20:37:21;;;;;;;13.85;8.23;;;21.80;99.90;;;;;;4994024;28;20747;-65
2022/05/10 20:39:47;;;;;;;12.82;7.80;;;21.90;99.90;;;;;;4993755;28;20843;-66
2022/05/10 20:42:13;;;;;;;11.40;7.93;;;21.70;99.90;;;;;;4987976;28;20421;-63
2022/05/10 20:44:39;;;;;;;13.30;8.50;;;21.60;99.90;;;;;;4991361;28;20801;-65
2022/05/10 20:47:05;;;;;;;13.40;8.65;;;21.60;99.90;;;;;;4991477;28;20419;-65
2022/05/10 20:49:30;;;;;;;14.30;8.52;;;21.50;99.90;;;;;;4992395;28;20429;-65
2022/05/10 20:51:56;;;;;;;16.40;9.33;;;21.50;99.90;;;;;;4991845;28;20916;-58
2022/05/10 20:54:22;;;;;;;13.60;9.10;;;21.50;99.90;;;;;;4991683;28;20390;-65
2022/05/10 20:56:47;;;;;;;15.48;9.60;;;22.00;99.90;;;;;;4987813;28;20383;-66
2022/05/10 20:59:13;;;;;;;14.00;8.73;;;21.30;99.90;;;;;;4991222;28;20453;-64
2022/05/10 21:01:39;;;;;;;13.45;8.60;;;21.30;99.90;;;;;;4991490;28;20490;-65
2022/05/10 21:04:05;;;;;;;13.80;9.40;;;21.20;99.90;;;;;;4991664;28;20399;-63
2022/05/10 21:09:16;;;;;;;12.85;9.40;;;20.90;99.90;;;;;;4989300;28;20473;-62
2022/05/10 21:11:42;;;;;;;15.60;9.55;;;20.90;99.90;;;;;;4992010;28;20860;-63
2022/05/10 21:14:08;;;;;;;14.80;9.40;;;20.60;99.90;;;;;;4990658;28;20476;-63
2022/05/10 21:16:37;;;;;;;14.75;9.50;;;20.70;99.90;;;;;;4991223;28;20890;-63
2022/05/10 21:19:03;;;;;;;14.80;9.35;;;20.60;99.90;;;;;;4990373;28;20399;-63
2022/05/10 21:21:29;;;;;;;14.90;9.60;;;20.50;99.90;;;;;;4990674;28;20398;-61
2022/05/10 21:23:55;;;;;;;14.73;10.13;;;20.40;1.00;;;;;;4993742;28;20398;-63
2022/05/10 21:27:06;;;;;;;15.07;10.10;;;20.20;1.00;;;;;;4991704;28;20457;-63
2022/05/10 21:31:13;;;;;;;16.80;11.43;;;20.20;1.00;;;;;;4989741;28;20425;-63
2022/05/10 21:31:52;;;;;;;16.80;10.30;;;20.20;1.00;;;;;;4991697;28;20456;-64
2022/05/10 21:34:17;;;;;;;18.02;11.00;;;20.20;1.00;;;;;;4989200;28;21086;-64
2022/05/10 21:36:43;;;;;;;16.73;11.63;;;20.20;1.00;;;;;;4995744;28;20393;-64
2022/05/10 21:39:08;;;;;;;14.97;11.60;;;20.30;1.00;;;;;;4991449;28;20405;-64
2022/05/10 21:41:34;;;;;;;16.40;11.90;;;20.20;1.00;;;;;;4992282;28;20431;-64
2022/05/10 21:44:00;;;;;;;19.17;12.07;;;20.20;1.00;;;;;;4991566;28;20390;-64
2022/05/10 21:46:25;;;;;;;18.95;11.98;;;20.00;1.00;;;;;;4990574;28;20744;-64
2022/05/10 21:48:51;;;;;;;17.70;12.55;;;19.90;1.00;;;;;;4988940;28;20423;-62
2022/05/10 21:51:16;;;;;;;18.75;11.90;;;20.20;1.00;;;;;;4972683;28;20479;-64
2022/05/10 21:53:42;;;;;;;17.30;12.23;;;19.80;17.20;;;;;;4990056;28;20473;-61
2022/05/10 21:56:08;;;;;;;17.33;12.10;;;19.70;48.30;;;;;;4990394;28;20407;-63
2022/05/10 21:58:34;;;;;;;18.85;12.05;;;19.70;99.90;;;;;;4991189;28;20482;-61
2022/05/10 22:01:00;;;;;;;19.93;12.07;;;19.60;98.40;;;;;;4990588;28;20470;-57
2022/05/10 22:03:26;;;;;;;16.65;11.95;;;19.60;1.00;;;;;;4991214;28;20840;-63
2022/05/10 22:05:58;;;;;;;16.40;11.87;;;19.50;1.00;;;;;;4990981;28;20401;-63
2022/05/10 22:08:24;;;;;;;18.03;12.37;;;19.30;1.00;;;;;;4989970;28;20433;-65
2022/05/10 22:10:49;;;;;;;15.68;11.60;;;19.40;1.00;;;;;;4991234;28;20378;-64
2022/05/10 22:13:16;;;;;;;16.42;11.40;;;19.40;1.00;;;;;;4989375;28;20394;-62
2022/05/10 22:15:42;;;;;;;15.02;10.85;;;19.50;1.00;;;;;;4990885;28;20397;-64
2022/05/10 22:18:08;;;;;;;17.53;11.63;;;19.50;1.00;;;;;;4988676;28;20394;-64
2022/05/10 22:20:34;;;;;;;17.30;12.35;;;19.50;1.00;;;;;;4990270;28;20394;-64
2022/05/10 22:23:00;;;;;;;16.70;10.90;;;19.40;1.00;;;;;;4994067;28;20398;-56
2022/05/10 22:25:25;;;;;;;16.30;10.70;;;19.40;1.00;;;;;;4990407;28;20457;-60
2022/05/10 22:27:51;;;;;;;17.67;11.20;;;19.40;1.00;;;;;;4991716;28;20893;-64
2022/05/10 22:30:17;;;;;;;15.30;11.20;;;19.30;1.00;;;;;;4990596;28;20394;-60
2022/05/10 22:32:43;;;;;;;15.10;11.20;;;19.30;1.00;;;;;;4988095;28;20468;-63
2022/05/10 22:35:09;;;;;;;18.80;11.57;;;19.20;1.00;;;;;;4987141;28;20473;-63
2022/05/10 22:37:36;;;;;;;16.83;11.75;;;19.00;1.00;;;;;;4988624;28;20406;-61
2022/05/10 22:40:04;;;;;;;16.27;11.03;;;19.00;1.00;;;;;;4987256;28;21022;-58
2022/05/10 22:42:30;;;;;;;17.43;11.47;;;19.00;1.00;;;;;;4990804;28;20414;-64
2022/05/10 22:44:56;;;;;;;16.25;10.75;;;19.00;1.00;;;;;;4985731;28;20394;-63
2022/05/10 22:47:21;;;;;;;15.80;10.98;;;18.90;1.00;;;;;;4987211;28;20410;-62
2022/05/10 22:49:47;;;;;;;16.23;11.10;;;19.00;1.00;;;;;;4990137;28;21241;-63
2022/05/10 22:52:12;;;;;;;12.77;10.00;;;18.90;1.00;;;;;;4989004;28;20439;-60
2022/05/10 22:54:38;;;;;;;14.30;10.70;;;19.50;1.00;;;;;;4993298;28;20907;-64
2022/05/10 22:57:04;;;;;;;17.05;11.20;;;18.90;1.00;;;;;;4990883;28;20405;-64
2022/05/10 22:59:30;;;;;;;15.23;11.60;;;19.00;1.00;;;;;;4989553;28;20401;-63
2022/05/10 23:01:55;;;;;;;15.05;10.98;;;18.80;1.00;;;;;;4990042;28;20386;-63
2022/05/10 23:04:21;;;;;;;17.13;11.43;;;18.70;1.00;;;;;;4988060;28;20458;-63
2022/05/10 23:06:47;;;;;;;16.70;11.77;;;18.70;1.00;;;;;;4989762;28;20404;-62
2022/05/10 23:09:12;;;;;;;16.58;10.90;;;18.70;1.00;;;;;;4992363;28;20420;-64
2022/05/10 23:11:38;;;;;;;16.75;11.73;;;18.70;1.00;;;;;;4991881;28;20921;-64
2022/05/10 23:14:04;;;;;;;18.50;11.43;;;18.70;1.00;;;;;;4991284;28;20410;-63
2022/05/10 23:16:31;;;;;;;17.05;12.45;;;18.60;1.00;;;;;;4989361;28;20390;-63
2022/05/10 23:18:57;;;;;;;15.70;11.68;;;18.60;1.00;;;;;;4989675;28;20863;-64
2022/05/10 23:21:22;;;;;;;16.10;11.10;;;18.50;1.00;;;;;;4992159;28;20409;-62
2022/05/10 23:23:48;;;;;;;17.02;12.07;;;18.60;1.00;;;;;;4989770;28;20395;-63
2022/05/10 23:26:21;;;;;;;16.42;11.63;;;18.70;1.00;;;;;;4989850;28;20402;-63
2022/05/10 23:28:47;;;;;;;16.95;11.60;;;18.70;1.00;;;;;;4986856;28;20426;-58
2022/05/10 23:31:13;;;;;;;18.33;11.80;;;18.70;1.00;;;;;;4988200;28;20402;-63
2022/05/10 23:33:38;;;;;;;17.50;10.97;;;18.70;1.00;;;;;;4983761;28;20407;-63
2022/05/10 23:36:04;;;;;;;18.10;11.45;;;18.70;1.00;;;;;;4989042;28;20426;-63
2022/05/10 23:38:30;;;;;;;16.20;11.02;;;18.60;1.00;;;;;;4988313;28;20406;-64
2022/05/10 23:40:55;;;;;;;15.53;11.23;;;18.60;1.00;;;;;;4989481;28;20398;-61
2022/05/10 23:46:05;;;;;;;17.38;12.60;;;18.40;1.00;;;;;;4986690;28;20385;-61
2022/05/10 23:48:31;;;;;;;17.77;12.13;;;18.40;20.80;;;;;;4989339;28;20414;-63
2022/05/10 23:50:56;;;;;;;17.15;12.32;;;18.40;52.00;;;;;;4989064;28;20445;-63
2022/05/10 23:53:22;;;;;;;17.45;12.43;;;18.40;99.90;;;;;;4988628;28;20927;-63
2022/05/10 23:55:48;;;;;;;20.00;13.67;;;18.40;99.90;;;;;;4987896;28;20388;-63
2022/05/10 23:58:16;;;;;;;18.65;13.20;;;18.40;99.90;;;;;;4983570;28;20444;-63
